sensor_id;sensor_type;location;lat;lon;timestamp;P1;durP1;ratioP1;P2;durP2;ratioP2
43877;SDS011;29815;48.184;11.268;2023-07-16T00:00:13;9.27;;;7.90;;
43877;SDS011;29815;48.184;11.268;2023-07-16T00:02:49;11.07;;;8.60;;
43877;SDS011;29815;48.184;11.268;2023-07-16T00:05:20;8.38;;;7.53;;
43877;SDS011;29815;48.184;11.268;2023-07-16T00:07:51;10.07;;;8.40;;
43877;SDS011;29815;48.184;11.268;2023-07-16T00:10:20;9.82;;;8.85;;
43877;SDS011;29815;48.184;11.268;2023-07-16T00:12:49;10.02;;;8.60;;
43877;SDS011;29815;48.184;11.268;2023-07-16T00:15:19;10.50;;;8.10;;
43877;SDS011;29815;48.184;11.268;2023-07-16T00:17:49;12.25;;;7.93;;
43877;SDS011;29815;48.184;11.268;2023-07-16T00:20:18;10.00;;;7.97;;
43877;SDS011;29815;48.184;11.268;2023-07-16T00:22:51;12.68;;;8.50;;
43877;SDS011;29815;48.184;11.268;2023-07-16T00:25:21;10.25;;;8.20;;
43877;SDS011;29815;48.184;11.268;2023-07-16T00:27:50;9.95;;;8.90;;
43877;SDS011;29815;48.184;11.268;2023-07-16T00:30:20;14.02;;;8.98;;
43877;SDS011;29815;48.184;11.268;2023-07-16T00:32:50;29.30;;;9.95;;
43877;SDS011;29815;48.184;11.268;2023-07-16T00:35:21;18.23;;;10.80;;
43877;SDS011;29815;48.184;11.268;2023-07-16T00:37:51;23.35;;;10.30;;
43877;SDS011;29815;48.184;11.268;2023-07-16T00:40:21;13.05;;;9.77;;
43877;SDS011;29815;48.184;11.268;2023-07-16T00:42:50;11.68;;;9.52;;
43877;SDS011;29815;48.184;11.268;2023-07-16T00:45:20;11.25;;;9.43;;
43877;SDS011;29815;48.184;11.268;2023-07-16T00:47:50;12.77;;;9.27;;
43877;SDS011;29815;48.184;11.268;2023-07-16T00:50:20;13.48;;;9.82;;
43877;SDS011;29815;48.184;11.268;2023-07-16T00:52:51;11.85;;;8.77;;
43877;SDS011;29815;48.184;11.268;2023-07-16T00:55:21;14.35;;;10.13;;
43877;SDS011;29815;48.184;11.268;2023-07-16T00:57:50;17.48;;;9.38;;
43877;SDS011;29815;48.184;11.268;2023-07-16T01:02:54;12.25;;;9.75;;
43877;SDS011;29815;48.184;11.268;2023-07-16T01:05:26;16.15;;;9.63;;
43877;SDS011;29815;48.184;11.268;2023-07-16T01:08:04;12.25;;;9.07;;
43877;SDS011;29815;48.184;11.268;2023-07-16T01:10:38;13.07;;;9.00;;
43877;SDS011;29815;48.184;11.268;2023-07-16T01:13:09;12.82;;;8.82;;
43877;SDS011;29815;48.184;11.268;2023-07-16T01:15:40;13.90;;;9.95;;
43877;SDS011;29815;48.184;11.268;2023-07-16T01:18:10;14.90;;;10.98;;
43877;SDS011;29815;48.184;11.268;2023-07-16T01:20:41;10.95;;;8.63;;
43877;SDS011;29815;48.184;11.268;2023-07-16T01:23:20;12.63;;;9.40;;
43877;SDS011;29815;48.184;11.268;2023-07-16T01:26:10;15.13;;;8.93;;
43877;SDS011;29815;48.184;11.268;2023-07-16T01:29:20;12.07;;;8.95;;
43877;SDS011;29815;48.184;11.268;2023-07-16T01:32:03;11.80;;;9.45;;
43877;SDS011;29815;48.184;11.268;2023-07-16T01:34:36;13.70;;;9.75;;
43877;SDS011;29815;48.184;11.268;2023-07-16T01:37:08;16.63;;;10.18;;
43877;SDS011;29815;48.184;11.268;2023-07-16T01:39:38;12.30;;;9.55;;
43877;SDS011;29815;48.184;11.268;2023-07-16T01:42:08;12.35;;;9.00;;
43877;SDS011;29815;48.184;11.268;2023-07-16T01:44:39;19.85;;;11.10;;
43877;SDS011;29815;48.184;11.268;2023-07-16T01:47:08;13.05;;;9.25;;
43877;SDS011;29815;48.184;11.268;2023-07-16T01:49:42;12.20;;;10.18;;
43877;SDS011;29815;48.184;11.268;2023-07-16T01:52:12;13.82;;;9.48;;
43877;SDS011;29815;48.184;11.268;2023-07-16T01:54:41;12.77;;;9.50;;
43877;SDS011;29815;48.184;11.268;2023-07-16T01:57:11;12.27;;;9.05;;
43877;SDS011;29815;48.184;11.268;2023-07-16T01:59:41;14.98;;;8.75;;
43877;SDS011;29815;48.184;11.268;2023-07-16T02:02:13;9.25;;;8.30;;
43877;SDS011;29815;48.184;11.268;2023-07-16T02:04:43;14.95;;;9.98;;
43877;SDS011;29815;48.184;11.268;2023-07-16T02:07:12;12.30;;;9.50;;
43877;SDS011;29815;48.184;11.268;2023-07-16T02:09:41;11.23;;;9.57;;
43877;SDS011;29815;48.184;11.268;2023-07-16T02:12:11;9.85;;;8.27;;
43877;SDS011;29815;48.184;11.268;2023-07-16T02:14:42;12.88;;;8.82;;
43877;SDS011;29815;48.184;11.268;2023-07-16T02:17:12;10.38;;;7.30;;
43877;SDS011;29815;48.184;11.268;2023-07-16T02:19:41;10.18;;;7.00;;
43877;SDS011;29815;48.184;11.268;2023-07-16T02:22:11;10.25;;;7.07;;
43877;SDS011;29815;48.184;11.268;2023-07-16T02:24:40;9.27;;;7.35;;
43877;SDS011;29815;48.184;11.268;2023-07-16T02:27:10;8.10;;;6.88;;
43877;SDS011;29815;48.184;11.268;2023-07-16T02:29:40;8.60;;;6.50;;
43877;SDS011;29815;48.184;11.268;2023-07-16T02:32:11;10.55;;;6.35;;
43877;SDS011;29815;48.184;11.268;2023-07-16T02:34:40;7.07;;;6.20;;
43877;SDS011;29815;48.184;11.268;2023-07-16T02:37:10;9.27;;;7.22;;
43877;SDS011;29815;48.184;11.268;2023-07-16T02:39:40;7.30;;;6.00;;
43877;SDS011;29815;48.184;11.268;2023-07-16T02:44:43;6.82;;;5.93;;
43877;SDS011;29815;48.184;11.268;2023-07-16T02:47:12;9.73;;;5.88;;
43877;SDS011;29815;48.184;11.268;2023-07-16T02:49:42;8.55;;;6.30;;
43877;SDS011;29815;48.184;11.268;2023-07-16T02:52:12;7.35;;;5.75;;
43877;SDS011;29815;48.184;11.268;2023-07-16T02:54:41;8.20;;;5.47;;
43877;SDS011;29815;48.184;11.268;2023-07-16T02:57:11;8.00;;;6.13;;
43877;SDS011;29815;48.184;11.268;2023-07-16T02:59:40;9.15;;;6.40;;
43877;SDS011;29815;48.184;11.268;2023-07-16T03:02:11;14.90;;;6.50;;
43877;SDS011;29815;48.184;11.268;2023-07-16T03:04:41;10.65;;;6.20;;
43877;SDS011;29815;48.184;11.268;2023-07-16T03:07:13;8.82;;;6.32;;
43877;SDS011;29815;48.184;11.268;2023-07-16T03:09:44;9.07;;;5.63;;
43877;SDS011;29815;48.184;11.268;2023-07-16T03:12:13;9.75;;;6.25;;
43877;SDS011;29815;48.184;11.268;2023-07-16T03:14:45;8.93;;;5.55;;
43877;SDS011;29815;48.184;11.268;2023-07-16T03:17:14;9.48;;;5.70;;
43877;SDS011;29815;48.184;11.268;2023-07-16T03:19:44;9.65;;;6.03;;
43877;SDS011;29815;48.184;11.268;2023-07-16T03:22:13;7.05;;;4.70;;
43877;SDS011;29815;48.184;11.268;2023-07-16T03:24:43;10.23;;;4.43;;
43877;SDS011;29815;48.184;11.268;2023-07-16T03:27:13;5.30;;;4.18;;
43877;SDS011;29815;48.184;11.268;2023-07-16T03:32:18;7.22;;;2.97;;
